• Join FlightAware (Why Join?)
  • Login
  • US Flag 
02:43AM EDT


 

Airport Tracker/Info


-or-


 

Live Flight TrackerFlight Track Log ✈ VIR4 ✈ 23-Apr-2013 ✈ KJFK - EGLL / LHR

Flight Track Log - Related Links

Times and Time Zones

All times are in EDT time to prevent confusion due to time zone crossing. See the VIR4 flight status page for this flight to view local times or setup timezone preferences in your user account.

Time Position Orientation Groundspeed Altitude Reporting Facility
EDT Latitude Longitude Course Direction KTS MPH feet Rate Location/Type
06:43PM 40.6420 -73.7700 30° Northeast 146 168 100  Level FlightAware
06:44PM 40.6560 -73.7580 33° Northeast 150 173 700 1,800 Climbing FlightAware
06:44PM 40.6620 -73.7480 52° Northeast 147 169 1,300 1,800 Climbing FlightAware
06:44PM 40.6640 -73.7330 80° East 158 182 1,600 900 Climbing FlightAware
06:45PM 40.6630 -73.7060 93° East 192 221 2,000 1,080 Climbing FlightAware
06:45PM 40.6740 -73.6720 67° East 223 257 2,600 1,920 Climbing FlightAware
06:46PM 40.6970 -73.6410 46° Northeast 245 282 3,800 2,460 Climbing FlightAware
06:46PM 40.7160 -73.6150 46° Northeast 254 292 4,900 2,820 Climbing FlightAware
06:46PM 40.7280 -73.5970 49° Northeast 258 297 5,700 3,180 Climbing FlightAware
06:47PM 40.7530 -73.5620 47° Northeast 260 299 7,300 2,940 Climbing FlightAware
06:47PM 40.7780 -73.5360 38° Northeast 267 307 8,400 2,700 Climbing FlightAware
06:47PM 40.7940 -73.5260 25° Northeast 269 310 9,100 2,280 Climbing FlightAware
06:48PM 40.8400 -73.4960 26° Northeast 292 336 10,500 1,440 Climbing FlightAware
06:49PM 40.8990 -73.4580 26° Northeast 345 397 11,200 1,440 Climbing FlightAware
06:50PM 40.9590 -73.4180 27° Northeast 364 419 12,600 2,100 Climbing FlightAware
06:50PM 41.0280 -73.3720 27° Northeast 378 435 14,200 2,220 Climbing FlightAware
06:51PM 41.0930 -73.3300 26° Northeast 385 443 15,800 2,280 Climbing FlightAware
06:51PM 41.1350 -73.2900 36° Northeast 394 453 16,900 2,040 Climbing FlightAware
06:52PM 41.1860 -73.2130 49° Northeast 404 465 18,200 1,800 Climbing FlightAware
06:53PM 41.2356 -73.1415 47° Northeast 417 480 19,300 1,680 Climbing FlightAware ADS-B
06:53PM 41.2781 -73.0794 48° Northeast 425 489 20,200 1,740 Climbing FlightAware ADS-B
06:54PM 41.3500 -72.9740 48° Northeast 438 504 21,900 1,740 Climbing FlightAware
06:55PM 41.3796 -72.9313 47° Northeast 436 502 22,400 1,200 Climbing FlightAware ADS-B
06:56PM 41.4690 -72.8010 47° Northeast 470 541 23,600 1,140 Climbing FlightAware
06:56PM 41.4837 -72.7789 48° Northeast 473 544 23,800 1,440 Climbing FlightAware ADS-B
06:56PM 41.5380 -72.6990 48° Northeast 482 555 24,700 1,560 Climbing FlightAware
06:57PM 41.5870 -72.6270 48° Northeast 485 558 25,700 1,560 Climbing FlightAware
06:58PM 41.6690 -72.4820 53° Northeast 491 565 27,200 1,380 Climbing FlightAware
06:59PM 41.7230 -72.3630 59° Northeast 501 577 28,200 900 Climbing FlightAware
07:00PM 41.7790 -72.2400 59° Northeast 507 583 28,700 1,380 Climbing FlightAware
07:00PM 41.8410 -72.1050 58° Northeast 515 593 30,700 2,520 Climbing FlightAware
07:01PM 41.9260 -71.9840 47° Northeast 529 609 32,700 1,920 Climbing FlightAware
07:03PM 42.0920 -71.7360 48° Northeast 536 617 35,400 1,500 Climbing FlightAware
07:04PM 42.1580 -71.6350 49° Northeast 537 618 36,400 1,080 Climbing FlightAware
07:04PM 42.2330 -71.5210 48° Northeast 536 617 37,000 420 Climbing FlightAware
07:05PM 42.2960 -71.4260 48° Northeast 538 619 37,000 180 Level FlightAware
07:06PM 42.3660 -71.3190 48° Northeast 541 623 37,300 840 Climbing FlightAware
07:06PM 42.4380 -71.2080 49° Northeast 539 620 38,200 1,020 Climbing FlightAware
07:07PM 42.5060 -71.1040 48° Northeast 541 623 38,800 540 Climbing FlightAware
07:08PM 42.5800 -70.9890 49° Northeast 543 625 39,000 120 Climbing FlightAware
07:08PM 42.6530 -70.8760 49° Northeast 544 626 39,000  Level FlightAware
07:09PM 42.7190 -70.7740 49° Northeast 548 631 39,000  Level FlightAware
07:10PM 42.7900 -70.6640 49° Northeast 551 634 39,000  Level FlightAware
07:11PM 42.8610 -70.5520 49° Northeast 552 635 39,000  Level FlightAware
07:11PM 42.9380 -70.4310 49° Northeast 552 635 39,000  Level FlightAware
07:12PM 43.0040 -70.3270 49° Northeast 551 634 39,000  Level FlightAware
07:13PM 43.0700 -70.2220 49° Northeast 551 634 39,000  Level FlightAware
07:13PM 43.1440 -70.1050 49° Northeast 552 635 39,000  Level FlightAware
07:14PM 43.2080 -70.0030 49° Northeast 551 634 39,000  Level FlightAware
07:15PM 43.2840 -69.8800 50° Northeast 551 634 39,000  Level FlightAware
07:15PM 43.3208 -69.8231 50° Northeast 543 625 39,000  Level Boston Center
07:16PM 43.4169 -69.6644 50° Northeast 543 625 39,000  Level Boston Center
07:17PM 43.5172 -69.5025 49° Northeast 543 625 39,000  Level Boston Center
07:22PM 44.0330 -68.6520 49° Northeast 557 641 39,000  Level FlightAware
07:23PM 44.0980 -68.5430 50° Northeast 557 641 39,000  Level FlightAware
07:24PM 44.1820 -68.4010 50° Northeast 556 640 39,000  Level FlightAware
07:25PM 44.2510 -68.2850 50° Northeast 555 639 39,000  Level FlightAware
07:25PM 44.3200 -68.1660 51° Northeast 556 640 39,000  Level FlightAware
07:26PM 44.3870 -68.0510 51° Northeast 557 641 39,000  Level FlightAware
07:27PM 44.4620 -67.9240 50° Northeast 556 640 39,000  Level FlightAware
07:27PM 44.5340 -67.7990 51° Northeast 558 642 39,000  Level FlightAware
07:28PM 44.5980 -67.6890 51° Northeast 557 641 39,000  Level FlightAware
07:29PM 44.6630 -67.5760 51° Northeast 556 640 39,000  Level FlightAware
07:30PM 44.7340 -67.4510 51° Northeast 557 641 39,000  Level FlightAware
07:30PM 44.8000 -67.3370 51° Northeast 558 642 39,000  Level FlightAware
07:31PM 44.8720 -67.2100 51° Northeast 558 642 39,000  Level FlightAware
07:32PM 44.9250 -67.1160 51° Northeast 558 642 39,000  Level FlightAware
07:32PM 44.9830 -67.0210 49° Northeast 556 640 39,000  Level FlightAware
07:33PM 45.0710 -66.8760 49° Northeast 557 641 39,000  Level FlightAware
07:34PM 45.1380 -66.7650 49° Northeast 558 642 39,000  Level FlightAware
07:34PM 45.2130 -66.6390 50° Northeast 558 642 39,000  Level FlightAware
07:35PM 45.2870 -66.5150 50° Northeast 557 641 39,000  Level FlightAware
07:36PM 45.3510 -66.4060 50° Northeast 557 641 39,000  Level FlightAware
07:37PM 45.4250 -66.2810 50° Northeast 557 641 39,000  Level FlightAware
07:37PM 45.4930 -66.1660 50° Northeast 558 642 39,000  Level FlightAware
07:38PM 45.5660 -66.0400 50° Northeast 557 641 39,000  Level FlightAware
07:39PM 45.6320 -65.9270 50° Northeast 557 641 39,000  Level FlightAware
07:39PM 45.6980 -65.8140 50° Northeast 557 641 39,000  Level FlightAware
07:40PM 45.7720 -65.6850 51° Northeast 555 639 39,000  Level FlightAware
07:41PM 45.8360 -65.5730 51° Northeast 554 638 39,000  Level FlightAware
07:41PM 45.8930 -65.4740 50° Northeast 555 639 39,000  Level FlightAware
07:42PM 45.9750 -65.3310 50° Northeast 555 639 39,000  Level FlightAware
07:43PM 46.0420 -65.2120 51° Northeast 555 639 39,000  Level FlightAware
07:43PM 46.1040 -65.1010 51° Northeast 555 639 39,000  Level FlightAware
07:44PM 46.1720 -64.9860 49° Northeast 555 639 39,000  Level FlightAware
07:45PM 46.2280 -64.8890 50° Northeast 555 639 39,000  Level FlightAware
07:46PM 46.3260 -64.7070 52° Northeast 554 638 39,000  Level FlightAware
07:46PM 46.3800 -64.6090 51° Northeast 554 638 39,000  Level FlightAware
07:47PM 46.4490 -64.4860 51° Northeast 554 638 39,000  Level FlightAware
07:48PM 46.5040 -64.3870 51° Northeast 554 638 39,000  Level FlightAware
07:49PM 46.5590 -64.2890 51° Northeast 554 638 39,000  Level FlightAware
07:49PM 46.6130 -64.1900 52° Northeast 554 638 39,000  Level FlightAware
07:50PM 46.6680 -64.0920 51° Northeast 554 638 39,000  Level FlightAware
07:51PM 46.7230 -63.9930 51° Northeast 554 638 39,000  Level FlightAware
07:51PM 46.7920 -63.8690 51° Northeast 554 638 39,000  Level FlightAware
07:52PM 46.8460 -63.7700 51° Northeast 554 638 39,000  Level FlightAware
07:53PM 46.9010 -63.6710 51° Northeast 554 638 39,000  Level FlightAware
07:53PM 46.9560 -63.5720 51° Northeast 554 638 39,000  Level FlightAware
07:54PM 47.0110 -63.4730 51° Northeast 554 638 39,000  Level FlightAware
07:55PM 47.0790 -63.3490 51° Northeast 554 638 39,000  Level FlightAware
07:56PM 47.2333 -62.9833 51° Northeast 540 621 39,000  Level Gander Center
07:56PM 47.2833 -62.8833 54° Northeast 540 621 39,000  Level Moncton Center
07:57PM 47.3667 -62.7167 54° Northeast 540 621 39,000  Level Moncton Center
07:58PM 47.4667 -62.5333 51° Northeast 540 621 39,000  Level Moncton Center
07:59PM 47.5500 -62.3667 53° Northeast 540 621 39,000  Level Moncton Center
08:00PM 47.6500 -62.1667 53° Northeast 540 621 39,000  Level Moncton Center
08:01PM 47.7167 -62.0833 40° Northeast 540 621 39,000  Level Gander Center
08:01PM 47.7500 -62.0000 59° Northeast 540 621 39,000  Level Moncton Center
08:02PM 47.8167 -61.8333 59° Northeast 540 621 39,000  Level Moncton Center
08:03PM 47.8833 -61.7333 45° Northeast 530 610 39,000  Level Gander Center
08:04PM 47.9833 -61.5500 51° Northeast 530 610 39,000  Level Gander Center
08:04PM 48.0167 -61.5000 45° Northeast 520 598 39,000  Level Moncton Center
08:05PM 48.1333 -61.3167 46° Northeast 530 610 39,000  Level Moncton Center
08:06PM 48.1833 -61.2333 48° Northeast 530 610 39,000  Level Gander Center
08:07PM 48.2833 -61.0500 51° Northeast 530 610 39,000  Level Gander Center
08:07PM 48.3167 -61.0000 45° Northeast 530 610 39,000  Level Moncton Center
08:08PM 48.4167 -60.8333 48° Northeast 520 598 39,000  Level Moncton Center
08:09PM 48.5167 -60.6833 45° Northeast 520 598 39,000  Level Moncton Center
08:10PM 48.6000 -60.5000 55° Northeast 520 598 39,000  Level Moncton Center
08:11PM 48.6667 -60.4000 45° Northeast 520 598 39,000  Level Gander Center
08:11PM 48.7000 -60.3333 53° Northeast 520 598 39,000  Level Moncton Center
08:12PM 48.8000 -60.1500 50° Northeast 520 598 39,000  Level Moncton Center
08:13PM 48.8833 -59.9833 53° Northeast 530 610 39,000  Level Moncton Center
08:14PM 48.9833 -59.8333 45° Northeast 530 610 39,000  Level Moncton Center
08:15PM 49.0833 -59.6667 47° Northeast 530 610 39,000  Level Moncton Center
08:16PM 49.1333 -59.5667 53° Northeast 530 610 39,000  Level Gander Center
08:17PM 49.2333 -59.3833 50° Northeast 520 598 39,000  Level Gander Center
08:18PM 49.3333 -59.2000 50° Northeast 520 598 39,000  Level Gander Center
08:19PM 49.4333 -59.0500 44° Northeast 520 598 39,000  Level Gander Center
08:20PM 49.5167 -58.8667 55° Northeast 520 598 39,000  Level Gander Center
08:20PM 49.5333 -58.8000 69° East 520 598 39,000  Level Moncton Center
08:21PM 49.6333 -58.6333 47° Northeast 520 598 39,000  Level Moncton Center
08:22PM 49.7000 -58.5167 49° Northeast 520 598 39,000  Level Gander Center
08:23PM 49.7833 -58.3500 52° Northeast 520 598 39,000  Level Gander Center
08:23PM 49.8167 -58.3000 44° Northeast 520 598 39,000  Level Moncton Center
08:24PM 49.8833 -58.1667 52° Northeast 520 598 39,000  Level Gander Center
08:25PM 49.9667 -58.0000 52° Northeast 520 598 39,000  Level Gander Center
08:26PM 50.0667 -57.8167 50° Northeast 520 598 39,000  Level Gander Center
08:27PM 50.1667 -57.6500 47° Northeast 520 598 39,000  Level Gander Center
08:28PM 50.2333 -57.4833 58° Northeast 510 587 39,000  Level Gander Center
08:29PM 50.3333 -57.3000 49° Northeast 520 598 39,000  Level Gander Center
08:29PM 50.3833 -57.2167 47° Northeast 510 587 39,000  Level Moncton Center
08:30PM 50.4500 -57.0500 58° Northeast 510 587 39,000  Level Moncton Center
08:31PM 50.5333 -56.8833 52° Northeast 510 587 39,000  Level Moncton Center
08:32PM 50.6000 -56.7833 44° Northeast 520 598 39,000  Level Gander Center
08:33PM 50.6833 -56.6167 52° Northeast 510 587 39,000  Level Gander Center
08:34PM 50.7667 -56.4167 57° Northeast 500 575 39,000  Level Gander Center
08:35PM 50.8667 -56.2500 46° Northeast 510 587 39,000  Level Gander Center
08:36PM 50.9500 -56.0500 56° Northeast 510 587 39,000  Level Gander Center
08:37PM 51.0333 -55.8833 51° Northeast 510 587 39,000  Level Gander Center
08:38PM 51.1167 -55.7167 51° Northeast 510 587 39,000  Level Gander Center
08:39PM 51.2167 -55.5167 51° Northeast 510 587 39,000  Level Gander Center
08:40PM 51.2833 -55.3500 57° Northeast 510 587 39,000  Level Gander Center
08:40PM 51.3167 -55.2833 51° Northeast 510 587 39,000  Level Gander Center
08:41PM 51.3833 -55.1667 47° Northeast 510 587 39,000  Level Gander Center
08:41PM 51.4000 -55.1167 62° Northeast 510 587 39,000  Level Gander Center
08:42PM 51.4833 -54.9167 56° Northeast 520 598 39,000  Level Gander Center
08:43PM 51.5500 -54.8000 47° Northeast 510 587 39,000  Level Gander Center
08:44PM 51.6333 -54.6000 56° Northeast 510 587 39,000  Level Gander Center
08:44PM 51.6667 -54.5667 32° Northeast 510 587 39,000 -360 Level Gander Center
08:45PM 51.7333 -54.3667 62° Northeast 510 587 38,600 -540 Descending Gander Center
08:46PM 51.8000 -54.2500 47° Northeast 510 587 38,100 -360 Descending Gander Center
08:47PM 51.8833 -54.0667 54° Northeast 510 587 38,000 -60 Descending Gander Center
08:48PM 51.9667 -53.8667 56° Northeast 510 587 38,000  Level Gander Center
08:48PM 52.0000 -53.8333 32° Northeast 510 587 38,000  Level Gander Center
08:49PM 52.0833 -53.6333 56° Northeast 500 575 38,000  Level Gander Center
08:50PM 52.1333 -53.4833 61° Northeast 500 575 38,000  Level Gander Center
08:51PM 52.2167 -53.3000 53° Northeast 500 575 38,000  Level Gander Center
08:51PM 52.2167 -53.2500 90° East 500 575 38,000  Level Gander Center
08:52PM 52.2667 -53.1000 61° Northeast 500 575 38,000  Level Gander Center
08:53PM 52.3167 -52.9000 68° East 500 575 38,000  Level Gander Center
08:53PM 52.3333 -52.8500 61° Northeast 500 575 38,000  Level Gander Center
08:54PM 52.3833 -52.6167 71° East 510 587 38,000  Level Gander Center
08:55PM 52.4333 -52.4167 68° East 510 587 38,000  Level Gander Center
08:56PM 52.4667 -52.2667 70° East 500 575 38,000  Level Gander Center
08:57PM 52.5167 -52.0333 71° East 510 587 38,000  Level Gander Center
08:58PM 52.5667 -51.8333 68° East 510 587 38,000  Level Gander Center
08:59PM 52.6167 -51.6000 70° East 520 598 38,000  Level Gander Center
09:00PM 52.6500 -51.4000 75° East 510 587 38,000  Level Gander Center
09:01PM 52.7000 -51.1667 70° East 520 598 38,000  Level Gander Center
09:02PM 52.7667 -50.9500 63° Northeast 520 598 38,000  Level Gander Center
09:03PM 52.8167 -50.7167 70° East 530 610 38,000  Level Gander Center
09:04PM 52.8667 -50.4833 70° East 520 598 38,000  Level Gander Center
09:05PM 52.8833 -50.2500 83° East 520 598 38,000  Level Gander Center
09:06PM 52.9500 -50.0333 63° Northeast 520 598 38,000  Level Gander Center
09:07PM 53.0333 -49.8000 59° Northeast 530 610 38,000 -480 Level Gander Center
09:09PM 53.1182 -49.4619 67° East  Level FlightAware Approximate
09:16PM 53.4818 -47.9514 67° East  Level FlightAware Approximate
09:17PM 53.5322 -47.7336 69° East  Level FlightAware Approximate
09:18PM 53.5821 -47.5146 69° East  Level FlightAware Approximate
09:19PM 53.6310 -47.2952 69° East  Level FlightAware Approximate
09:20PM 53.6795 -47.0754 69° East  Level FlightAware Approximate
09:21PM 53.7276 -46.8550 70° East  Level FlightAware Approximate
09:22PM 53.7753 -46.6342 70° East  Level FlightAware Approximate
09:23PM 53.8226 -46.4128 70° East  Level FlightAware Approximate
09:24PM 53.8695 -46.1910 70° East  Level FlightAware Approximate
09:25PM 53.9160 -45.9687 70° East  Level FlightAware Approximate
09:26PM 53.9620 -45.7458 71° East  Level FlightAware Approximate
09:27PM 54.0077 -45.5225 71° East  Level FlightAware Approximate
09:28PM 54.0529 -45.2987 71° East  Level FlightAware Approximate
09:29PM 54.0977 -45.0743 71° East  Level FlightAware Approximate
09:30PM 54.1421 -44.8496 71° East  Level FlightAware Approximate
09:31PM 54.1861 -44.6243 71° East  Level FlightAware Approximate
09:32PM 54.2296 -44.3985 72° East  Level FlightAware Approximate
09:33PM 54.2728 -44.1723 72° East  Level FlightAware Approximate
09:34PM 54.3155 -43.9456 72° East  Level FlightAware Approximate
09:35PM 54.3591 -43.7192 71° East  Level FlightAware Approximate
09:36PM 54.4033 -43.4929 71° East  Level FlightAware Approximate
09:37PM 54.4471 -43.2661 72° East  Level FlightAware Approximate
09:38PM 54.4905 -43.0388 72° East  Level FlightAware Approximate
09:39PM 54.5328 -42.8107 73° East  Level FlightAware Approximate
09:40PM 54.5737 -42.5816 73° East  Level FlightAware Approximate
09:41PM 54.6142 -42.3521 73° East  Level FlightAware Approximate
09:42PM 54.6543 -42.1221 73° East  Level FlightAware Approximate
09:43PM 54.6939 -41.8916 73° East  Level FlightAware Approximate
09:44PM 54.7331 -41.6607 74° East  Level FlightAware Approximate
09:45PM 54.7719 -41.4293 74° East  Level FlightAware Approximate
09:46PM 54.8102 -41.1976 74° East  Level FlightAware Approximate
09:47PM 54.8480 -40.9653 74° East  Level FlightAware Approximate
09:48PM 54.8855 -40.7327 74° East  Level FlightAware Approximate
09:49PM 54.9225 -40.4996 74° East  Level FlightAware Approximate
09:50PM 54.9590 -40.2660 75° East  Level FlightAware Approximate
09:51PM 54.9951 -40.0321 75° East  Level FlightAware Approximate
09:52PM 55.0286 -39.7968 76° East  Level FlightAware Approximate
09:53PM 55.0614 -39.5610 76° East  Level FlightAware Approximate
09:54PM 55.0938 -39.3248 76° East  Level FlightAware Approximate
09:55PM 55.1256 -39.0882 77° East  Level FlightAware Approximate
09:56PM 55.1570 -38.8513 77° East  Level FlightAware Approximate
09:57PM 55.1880 -38.6140 77° East  Level FlightAware Approximate
09:58PM 55.2185 -38.3763 77° East  Level FlightAware Approximate
09:59PM 55.2485 -38.1382 77° East  Level FlightAware Approximate
10:00PM 55.2781 -37.8998 78° East  Level FlightAware Approximate
10:01PM 55.3072 -37.6611 78° East  Level FlightAware Approximate
10:02PM 55.3358 -37.4220 78° East  Level FlightAware Approximate
10:03PM 55.3640 -37.1825 78° East  Level FlightAware Approximate
10:04PM 55.3917 -36.9427 78° East  Level FlightAware Approximate
10:05PM 55.4189 -36.7026 79° East  Level FlightAware Approximate
10:06PM 55.4456 -36.4621 79° East  Level FlightAware Approximate
10:07PM 55.4719 -36.2214 79° East  Level FlightAware Approximate
10:08PM 55.4977 -35.9803 79° East  Level FlightAware Approximate
10:09PM 55.5230 -35.7389 79° East  Level FlightAware Approximate
10:10PM 55.5479 -35.4972 80° East  Level FlightAware Approximate
10:11PM 55.5723 -35.2551 80° East  Level FlightAware Approximate
10:12PM 55.5962 -35.0128 80° East  Level FlightAware Approximate
10:13PM 55.6196 -34.7702 80° East  Level FlightAware Approximate
10:14PM 55.6426 -34.5273 80° East  Level FlightAware Approximate
10:15PM 55.6651 -34.2841 81° East  Level FlightAware Approximate
10:16PM 55.6870 -34.0407 81° East  Level FlightAware Approximate
10:17PM 55.7085 -33.7970 81° East  Level FlightAware Approximate
10:18PM 55.7296 -33.5530 81° East  Level FlightAware Approximate
10:19PM 55.7501 -33.3087 81° East  Level FlightAware Approximate
10:20PM 55.7701 -33.0642 82° East  Level FlightAware Approximate
10:21PM 55.7903 -32.8196 81° East  Level FlightAware Approximate
10:22PM 55.8111 -32.5751 81° East  Level FlightAware Approximate
10:23PM 55.8315 -32.3303 81° East  Level FlightAware Approximate
10:24PM 55.8513 -32.0852 82° East  Level FlightAware Approximate
10:25PM 55.8707 -31.8399 82° East  Level FlightAware Approximate
10:26PM 55.8896 -31.5944 82° East  Level FlightAware Approximate
10:27PM 55.9080 -31.3486 82° East  Level FlightAware Approximate
10:28PM 55.9259 -31.1025 82° East  Level FlightAware Approximate
10:29PM 55.9434 -30.8563 83° East  Level FlightAware Approximate
10:30PM 55.9603 -30.6098 83° East  Level FlightAware Approximate
10:31PM 55.9767 -30.3632 83° East  Level FlightAware Approximate
10:32PM 55.9927 -30.1163 83° East  Level FlightAware Approximate
10:33PM 56.0052 -29.8687 86° East  Level FlightAware Approximate
10:34PM 56.0148 -29.6206 86° East  Level FlightAware Approximate
10:34PM 56.0650 -28.4700 93° East -1  Level FlightAware Direct Aircraft Datalink
10:35PM 56.0238 -29.3724 86° East  Level FlightAware Approximate
10:36PM 56.0324 -29.1241 86° East  Level FlightAware Approximate
10:37PM 56.0405 -28.8757 87° East  Level FlightAware Approximate
10:38PM 56.0480 -28.6271 87° East  Level FlightAware Approximate
10:39PM 56.0550 -28.3785 87° East  Level FlightAware Approximate
10:40PM 56.0616 -28.1298 87° East  Level FlightAware Approximate
10:41PM 56.0676 -27.8810 87° East  Level FlightAware Approximate
10:42PM 56.0732 -27.6321 88° East  Level FlightAware Approximate
10:43PM 56.0783 -27.3832 88° East  Level FlightAware Approximate
10:44PM 56.0828 -27.1341 88° East  Level FlightAware Approximate
10:45PM 56.0868 -26.8851 88° East  Level FlightAware Approximate
10:46PM 56.0904 -26.6360 88° East  Level FlightAware Approximate
10:47PM 56.0934 -26.3868 89° East  Level FlightAware Approximate
10:48PM 56.0960 -26.1376 89° East  Level FlightAware Approximate
10:49PM 56.0980 -25.8884 89° East  Level FlightAware Approximate
10:50PM 56.0995 -25.6392 89° East  Level FlightAware Approximate
10:51PM 56.1006 -25.3899 89° East  Level FlightAware Approximate
10:52PM 56.1011 -25.1406 90° East  Level FlightAware Approximate
10:53PM 56.1012 -24.8914 90° East  Level FlightAware Approximate
10:54PM 56.1007 -24.6421 90° East  Level FlightAware Approximate
10:55PM 56.0997 -24.3929 90° East  Level FlightAware Approximate
10:56PM 56.0982 -24.1436 91° East  Level FlightAware Approximate
10:57PM 56.0963 -23.8944 91° East  Level FlightAware Approximate
10:58PM 56.0938 -23.6452 91° East  Level FlightAware Approximate
10:59PM 56.0908 -23.3960 91° East  Level FlightAware Approximate
11:00PM 56.0873 -23.1469 91° East  Level FlightAware Approximate
11:01PM 56.0833 -22.8979 92° East  Level FlightAware Approximate
11:02PM 56.0789 -22.6488 92° East  Level FlightAware Approximate
11:03PM 56.0739 -22.3999 92° East  Level FlightAware Approximate
11:04PM 56.0684 -22.1510 92° East  Level FlightAware Approximate
11:05PM 56.0624 -21.9022 92° East  Level FlightAware Approximate
11:06PM 56.0559 -21.6535 93° East  Level FlightAware Approximate
11:07PM 56.0489 -21.4048 93° East  Level FlightAware Approximate
11:08PM 56.0414 -21.1563 93° East  Level FlightAware Approximate
11:08PM 55.4636 -20.1020 94° East  Level Estimated
11:10PM 55.4140 -19.6488 101° East  Level Estimated
11:11PM 55.3870 -19.4086 101° East  Level Estimated
11:12PM 55.3595 -19.1688 101° East  Level Estimated
11:13PM 55.3316 -18.9293 101° East  Level Estimated
11:14PM 55.3032 -18.6901 102° East  Level Estimated
11:15PM 55.2743 -18.4513 102° East  Level Estimated
11:16PM 55.2449 -18.2129 102° East  Level Estimated
11:17PM 55.2151 -17.9748 102° East  Level Estimated
11:18PM 55.1849 -17.7370 102° East  Level Estimated
11:19PM 55.1541 -17.4996 103° East  Level Estimated
11:20PM 55.1229 -17.2626 103° East  Level Estimated
11:21PM 55.0913 -17.0259 103° East  Level Estimated
11:22PM 55.0592 -16.7897 103° East  Level Estimated
11:23PM 55.0266 -16.5538 103° East  Level Estimated
11:24PM 54.9936 -16.3183 104° East  Level Estimated
11:25PM 54.9601 -16.0832 104° East  Level Estimated
11:26PM 54.9262 -15.8484 104° East  Level Estimated
11:27PM 54.8918 -15.6141 104° East  Level Estimated
11:28PM 54.8570 -15.3802 104° East  Level Estimated
11:29PM 54.8217 -15.1467 105° East  Level Estimated
11:30PM 54.7860 -14.9136 105° East  Level Estimated
11:31PM 54.7498 -14.6809 105° East  Level Estimated
11:31PM 55.4860 -13.4270 105° East 477 549 38,000  Level FlightAware
11:32PM 54.7132 -14.4486 105° East  Level Estimated
11:32PM 55.4380 -13.2900 122° Southeast 478 550 38,000  Level FlightAware
11:33PM 55.3850 -13.1400 122° Southeast 476 548 38,000  Level FlightAware
11:33PM 55.3370 -13.0050 122° Southeast 474 545 38,000  Level FlightAware
11:34PM 55.2920 -12.8780 122° Southeast 468 539 38,000  Level FlightAware
11:35PM 55.2400 -12.7330 122° Southeast 466 536 38,000  Level FlightAware
11:35PM 55.1940 -12.6050 122° Southeast 469 540 38,000  Level FlightAware
11:36PM 55.1470 -12.4750 122° Southeast 477 549 38,000  Level FlightAware
11:37PM 55.0930 -12.3280 123° Southeast 478 550 38,000  Level FlightAware
11:38PM 55.0460 -12.2000 123° Southeast 475 547 38,000  Level FlightAware
11:38PM 54.9790 -12.0200 123° Southeast 481 554 38,000  Level FlightAware
11:39PM 54.9260 -11.8760 123° Southeast 479 551 38,000  Level FlightAware
11:40PM 54.8820 -11.7580 123° Southeast 478 550 38,000  Level FlightAware
11:41PM 54.8230 -11.6010 123° Southeast 476 548 38,000  Level FlightAware
11:41PM 54.7740 -11.4720 123° Southeast 477 549 38,000  Level FlightAware
11:42PM 54.7260 -11.3450 123° Southeast 475 547 38,000  Level FlightAware
11:43PM 54.6700 -11.1990 124° Southeast 477 549 38,000  Level FlightAware
11:43PM 54.6210 -11.0720 124° Southeast 476 548 38,000  Level FlightAware
11:44PM 54.5660 -10.9280 123° Southeast 472 543 38,000  Level FlightAware
11:45PM 54.5170 -10.8030 124° Southeast 469 540 38,000  Level FlightAware
11:45PM 54.4750 -10.6950 124° Southeast 470 541 38,000  Level FlightAware
11:47PM 54.3930 -10.4870 124° Southeast 471 542 38,000  Level FlightAware
11:48PM 54.3210 -10.3040 124° Southeast 470 541 38,000  Level FlightAware
11:50PM 54.2173 -9.8708 112° Southeast  Level FlightAware Approximate
11:50PM 54.1470 -9.8700 112° Southeast 468 539 38,000  Level FlightAware
11:51PM 54.0910 -9.7320 125° Southeast 469 540 38,000  Level FlightAware
11:51PM 54.0410 -9.6090 125° Southeast 476 548 38,000  Level FlightAware
11:53PM 53.9410 -9.3650 125° Southeast 473 544 38,000  Level FlightAware
11:54PM 53.8650 -9.1830 125° Southeast 472 543 38,000  Level FlightAware
11:54PM 53.8160 -9.0640 125° Southeast 472 543 38,000 -1,560 Level FlightAware
11:55PM 53.7839 -8.9875 125° Southeast 432 497 36,500 -2,160 Descending FlightAware UK
11:55PM 53.7613 -8.9336 125° Southeast 432 497 36,500 2,880 Level FlightAware UK
11:55PM 53.7530 -8.9140 125° Southeast 472 543 38,000  Climbing FlightAware
11:55PM 53.7236 -8.8436 125° Southeast 432 497 36,500 -2,580 Descending FlightAware UK
11:56PM 53.7011 -8.7899 125° Southeast 432 497 36,500 3,900 Level FlightAware UK
11:56PM 53.7010 -8.7920 125° Southeast 468 539 38,000  Climbing FlightAware
11:56PM 53.6709 -8.7187 125° Southeast 432 497 36,500 -2,460 Descending FlightAware UK
11:56PM 53.6483 -8.6655 126° Southeast 432 497 36,500 4,260 Level FlightAware UK
11:56PM 53.6530 -8.6760 126° Southeast 469 540 38,000  Climbing FlightAware
11:57PM 53.6254 -8.6117 126° Southeast 432 497 36,500 -2,760 Descending FlightAware UK
11:57PM 53.6030 -8.5590 126° Southeast 432 497 36,500 3,000 Level FlightAware UK
11:57PM 53.5940 -8.5380 126° Southeast 471 542 38,000  Climbing FlightAware
11:58PM 53.5646 -8.4698 126° Southeast 430 495 36,500 -2,520 Descending FlightAware UK
11:58PM 53.5418 -8.4166 126° Southeast 434 499 36,500 4,080 Level FlightAware UK
11:58PM 53.5430 -8.4190 126° Southeast 472 543 38,000  Climbing FlightAware
11:58PM 53.5114 -8.3454 126° Southeast 432 497 36,500 -2,400 Descending FlightAware UK
11:59PM 53.4885 -8.2922 126° Southeast 432 497 36,500 4,500 Level FlightAware UK
11:59PM 53.4930 -8.3020 126° Southeast 472 543 38,000  Climbing FlightAware
11:59PM 53.4655 -8.2389 126° Southeast 434 499 36,500 -2,700 Descending FlightAware UK
11:59PM 53.4424 -8.1857 126° Southeast 434 499 36,500 3,060 Level FlightAware UK
11:59PM 53.4340 -8.1660 126° Southeast 470 541 38,000  Climbing FlightAware
12:00AM 53.4038 -8.0967 126° Southeast 436 502 36,500 -2,460 Descending FlightAware UK
12:00AM 53.3803 -8.0429 126° Southeast 438 504 36,500 4,260 Level FlightAware UK
12:00AM 53.3810 -8.0450 126° Southeast 476 548 38,000  Climbing FlightAware
12:00AM 53.3565 -7.9882 126° Southeast 440 506 36,500 -2,760 Descending FlightAware UK
12:01AM 53.3328 -7.9336 126° Southeast 438 504 36,500 3,000 Level FlightAware UK
12:01AM 53.3220 -7.9080 126° Southeast 479 551 38,000  Climbing FlightAware
12:01AM 53.2934 -7.8431 126° Southeast 438 504 36,500 -2,520 Descending FlightAware UK
12:01AM 53.2692 -7.7882 126° Southeast 440 506 36,500 4,080 Level FlightAware UK
12:01AM 53.2700 -7.7890 126° Southeast 478 550 38,000  Climbing FlightAware
12:02AM 53.2378 -7.7169 126° Southeast 440 506 36,500 -2,400 Descending FlightAware UK
12:02AM 53.2139 -7.6626 126° Southeast 438 504 36,500 4,500 Level FlightAware UK
12:02AM 53.2170 -7.6690 126° Southeast 475 547 38,000  Climbing FlightAware
12:02AM 53.1906 -7.6098 126° Southeast 436 502 36,500 -2,700 Descending FlightAware UK
12:03AM 53.1669 -7.5563 126° Southeast 438 504 36,500 3,060 Level FlightAware UK
12:03AM 53.1600 -7.5410 126° Southeast 476 548 38,000  Climbing FlightAware
12:03AM 53.1271 -7.4665 126° Southeast 438 504 36,500 -2,460 Descending FlightAware UK
12:03AM 53.1035 -7.4130 126° Southeast 438 504 36,500 4,260 Level FlightAware UK
12:03AM 53.1050 -7.4170 126° Southeast 481 554 38,000  Climbing FlightAware
12:04AM 53.0797 -7.3596 126° Southeast 438 504 36,500 -2,760 Descending FlightAware UK
12:04AM 53.0558 -7.3063 127° Southeast 436 502 36,500 3,000 Level FlightAware UK
12:04AM 53.0470 -7.2870 127° Southeast 483 556 38,000  Climbing FlightAware
12:05AM 53.0158 -7.2174 127° Southeast 438 504 36,500 -2,520 Descending FlightAware UK
12:05AM 52.9918 -7.1639 127° Southeast 440 506 36,500 4,080 Level FlightAware UK
12:05AM 52.9920 -7.1640 127° Southeast 485 558 38,000  Climbing FlightAware
12:05AM 52.9594 -7.0920 127° Southeast 438 504 36,500 -2,400 Descending FlightAware UK
12:06AM 52.9356 -7.0392 127° Southeast 440 506 36,500 3,600 Level FlightAware UK
12:06AM 52.9320 -7.0310 127° Southeast 484 557 38,000  Climbing FlightAware
12:06AM 52.9032 -6.9674 127° Southeast 438 504 36,500 -2,580 Descending FlightAware UK
12:06AM 52.8789 -6.9142 127° Southeast 438 504 36,500 3,900 Level FlightAware UK
12:06AM 52.8790 -6.9150 127° Southeast 484 557 38,000  Climbing FlightAware
12:07AM 52.8466 -6.8434 127° Southeast 438 504 36,500 -2,460 Descending FlightAware UK
12:07AM 52.8223 -6.7904 127° Southeast 438 504 36,500 4,260 Level FlightAware UK
12:07AM 52.8250 -6.7960 127° Southeast 485 558 38,000  Climbing FlightAware
12:07AM 52.7980 -6.7372 127° Southeast 440 506 36,500 -2,760 Descending FlightAware UK
12:08AM 52.7737 -6.6841 127° Southeast 438 504 36,500 3,000 Level FlightAware UK
12:08AM 52.7630 -6.6610 127° Southeast 484 557 38,000  Climbing FlightAware
12:08AM 52.7331 -6.5959 127° Southeast 438 504 36,500 -2,520 Descending FlightAware UK
12:08AM 52.7088 -6.5431 127° Southeast 438 504 36,500 4,080 Level FlightAware UK
12:08AM 52.7100 -6.5450 127° Southeast 484 557 38,000  Climbing FlightAware
12:09AM 52.6763 -6.4728 127° Southeast 436 502 36,500 -2,400 Descending FlightAware UK
12:09AM 52.6518 -6.4202 127° Southeast 438 504 36,500 4,500 Level FlightAware UK
12:09AM 52.6550 -6.4270 127° Southeast 481 554 38,000  Climbing FlightAware
12:09AM 52.6271 -6.3669 127° Southeast 440 506 36,500 -2,700 Descending FlightAware UK
12:10AM 52.6025 -6.3141 127° Southeast 438 504 36,500 3,060 Level FlightAware UK
12:10AM 52.5940 -6.2960 127° Southeast 482 555 38,000  Climbing FlightAware
12:10AM 52.5615 -6.2263 127° Southeast 438 504 36,500 -2,460 Descending FlightAware UK
12:10AM 52.5368 -6.1736 128° Southeast 440 506 36,500 4,260 Level FlightAware UK
12:10AM 52.5420 -6.1840 128° Southeast 482 555 38,000  Climbing FlightAware
12:11AM 52.5124 -6.1205 128° Southeast 438 504 36,500 -2,700 Descending FlightAware UK
12:11AM 52.4950 -6.0578 114° Southeast 436 502 36,500 3,000 Level FlightAware UK
12:11AM 52.4880 -6.0280 114° Southeast 501 577 38,000  Climbing FlightAware
12:12AM 52.4711 -5.9502 114° Southeast 438 504 36,500 -2,460 Descending FlightAware UK
12:12AM 52.4567 -5.8857 110° East 438 504 36,500 4,260 Level FlightAware UK
12:12AM 52.4570 -5.8860 110° East 506 582 38,000  Climbing FlightAware
12:12AM 52.4420 -5.8211 110° East 440 506 36,500 -2,760 Descending FlightAware UK
12:12AM 52.4273 -5.7566 110° East 438 504 36,500 3,000 Level FlightAware UK
12:13AM 52.4270 -5.7540 110° East 506 582 38,000  Climbing FlightAware
12:13AM 52.4026 -5.6484 110° East 438 504 36,500 -2,520 Descending FlightAware UK
12:13AM 52.3882 -5.5846 110° East 440 506 36,500 4,080 Level FlightAware UK
12:13AM 52.3860 -5.5760 110° East 506 582 38,000  Climbing FlightAware
12:14AM 52.3682 -5.4981 110° East 440 506 36,500 -2,400 Descending FlightAware UK
12:14AM 52.3535 -5.4347 111° Southeast 440 506 36,500 4,500 Level FlightAware UK
12:14AM 52.3530 -5.4330 111° Southeast 502 578 38,000  Climbing FlightAware
12:14AM 52.3385 -5.3702 111° Southeast 438 504 36,500 -2,700 Descending FlightAware UK
12:15AM 52.3238 -5.3069 111° Southeast 434 499 36,500 3,060 Level FlightAware UK
12:15AM 52.3170 -5.2780 111° Southeast 499 574 38,000  Climbing FlightAware
12:15AM 52.2994 -5.2019 111° Southeast 436 502 36,500 -2,460 Descending FlightAware UK
12:15AM 52.2845 -5.1385 111° Southeast 438 504 36,500 4,260 Level FlightAware UK
12:15AM 52.2840 -5.1370 111° Southeast 503 579 38,000  Climbing FlightAware
12:16AM 52.2695 -5.0740 111° Southeast 440 506 36,500 -2,760 Descending FlightAware UK
12:16AM 52.2547 -5.0110 111° Southeast 438 504 36,500 3,000 Level FlightAware UK
12:16AM 52.2470 -4.9790 111° Southeast 502 578 38,000  Climbing FlightAware
12:16AM 52.2297 -4.9052 111° Southeast 438 504 36,500 -2,520 Descending FlightAware UK
12:17AM 52.2147 -4.8418 111° Southeast 438 504 36,500 4,080 Level FlightAware UK
12:17AM 52.2130 -4.8340 111° Southeast 502 578 38,000  Climbing FlightAware
12:17AM 52.1941 -4.7562 111° Southeast 438 504 36,500 -2,400 Descending FlightAware UK
12:17AM 52.1790 -4.6930 111° Southeast 436 502 36,500 4,500 Level FlightAware UK
12:17AM 52.1820 -4.7050 111° Southeast 501 577 38,000  Climbing FlightAware
12:18AM 52.1638 -4.6300 111° Southeast 436 502 36,500 -2,700 Descending FlightAware UK
12:18AM 52.1489 -4.5677 111° Southeast 436 502 36,500 3,060 Level FlightAware UK
12:18AM 52.1420 -4.5410 111° Southeast 502 578 38,000  Climbing FlightAware
12:19AM 52.1234 -4.4625 111° Southeast 438 504 36,500 -2,460 Descending FlightAware UK
12:19AM 52.1080 -4.3994 112° Southeast 438 504 36,500 4,260 Level FlightAware UK
12:19AM 52.1080 -4.3990 112° Southeast 504 580 38,000  Climbing FlightAware
12:19AM 52.0926 -4.3362 112° Southeast 440 506 36,500 -2,760 Descending FlightAware UK
12:19AM 52.0772 -4.2728 112° Southeast 440 506 36,500 2,760 Level FlightAware UK
12:20AM 52.0700 -4.2360 112° Southeast 505 581 37,900 3,120 Climbing FlightAware
12:20AM 52.0618 -4.1927 107° East 503 579 37,700 -5,220 Descending FlightAware ADS-B
12:20AM 52.0491 -4.1198 107° East 442 509 35,300 -2,280 Descending FlightAware UK
12:20AM 52.0415 -4.0751 107° East 506 582 36,500 -1,800 Climbing FlightAware ADS-B
12:21AM 52.0302 -4.0104 107° East 438 504 34,400 -4,320 Descending FlightAware UK
12:21AM 52.0185 -3.9472 107° East 438 504 34,000 3,300 Descending FlightAware UK
12:21AM 52.0180 -3.9460 107° East 494 568 35,500 -1,680 Climbing FlightAware
12:21AM 52.0064 -3.8831 107° East 434 499 33,500 -4,440 Descending FlightAware UK
12:22AM 51.9948 -3.8212 107° East 430 495 33,000 1,620 Descending FlightAware UK
12:22AM 51.9880 -3.7846 107° East 480 552 34,300 -1,620 Climbing FlightAware ADS-B
12:22AM 51.9754 -3.7179 107° East 420 483 32,200 -1,680 Descending FlightAware UK
12:22AM 51.9668 -3.6730 107° East 473 544 33,400 -1,440 Climbing FlightAware ADS-B
12:23AM 51.9563 -3.6178 107° East 410 472 31,500 -1,560 Descending FlightAware UK
12:23AM 51.9472 -3.5704 107° East 467 537 32,600 -1,800 Climbing FlightAware ADS-B
12:23AM 51.9370 -3.5174 107° East 408 470 30,600 -1,500 Descending FlightAware UK
12:23AM 51.9266 -3.4634 107° East 462 532 31,800 -1,500 Climbing FlightAware ADS-B
12:24AM 51.9139 -3.3980 107° East 402 463 29,700 -1,740 Descending FlightAware UK
12:24AM 51.9060 -3.3570 107° East 455 524 30,900 -1,440 Climbing FlightAware ADS-B
12:24AM 51.8953 -3.3022 107° East 396 456 29,000 -1,380 Descending FlightAware UK
12:24AM 51.8867 -3.2574 107° East 447 514 30,200 -2,040 Climbing FlightAware ADS-B
12:25AM 51.8767 -3.2067 107° East 394 453 28,000 -2,400 Descending FlightAware UK
12:25AM 51.8676 -3.1595 107° East 449 517 29,000 -2,040 Climbing FlightAware ADS-B
12:25AM 51.8579 -3.1106 107° East 400 460 27,000 -1,560 Descending FlightAware UK
12:25AM 51.8486 -3.0624 107° East 448 516 28,200 -1,560 Climbing FlightAware ADS-B
12:26AM 51.8392 -3.0144 107° East 400 460 26,200 -1,680 Descending FlightAware UK
12:26AM 51.8282 -2.9576 107° East 448 516 27,300 -1,560 Climbing FlightAware ADS-B
12:26AM 51.8170 -2.9003 107° East 402 463 25,300 -1,620 Descending FlightAware UK
12:26AM 51.8093 -2.8608 107° East 445 512 26,500 -1,560 Climbing FlightAware ADS-B
12:27AM 51.7982 -2.8045 107° East 396 456 24,500 -1,560 Descending FlightAware UK
12:27AM 51.7908 -2.7663 107° East 434 499 25,700 -1,440 Climbing FlightAware ADS-B
12:27AM 51.7802 -2.7130 107° East 388 447 23,800 -1,380 Descending FlightAware UK
12:27AM 51.7721 -2.6721 107° East 426 490 25,000 -1,620 Climbing FlightAware ADS-B
12:28AM 51.7622 -2.6226 107° East 382 440 23,000 -1,620 Descending FlightAware UK
12:28AM 51.7537 -2.5792 107° East 417 480 24,200 -1,440 Climbing FlightAware ADS-B
12:28AM 51.7446 -2.5339 107° East 378 435 22,300 -1,380 Descending FlightAware UK
12:28AM 51.7361 -2.4914 107° East 409 471 23,500 -1,620 Climbing FlightAware ADS-B
12:29AM 51.7273 -2.4471 107° East 370 426 21,500 -1,800 Descending FlightAware UK
12:29AM 51.7180 -2.4010 107° East 401 461 22,600 -1,500 Climbing FlightAware ADS-B
12:29AM 51.7066 -2.3451 107° East 368 423 20,600 -1,320 Descending FlightAware UK
12:30AM 51.7002 -2.3130 107° East 393 452 21,900 -1,440 Climbing FlightAware ADS-B
12:30AM 51.6896 -2.2613 107° East 362 417 19,900 -1,620 Descending FlightAware UK
12:30AM 51.6833 -2.2296 107° East 387 445 21,100 -1,620 Climbing FlightAware ADS-B
12:30AM 51.6731 -2.1798 107° East 354 407 19,100 -1,440 Descending FlightAware UK
12:31AM 51.6664 -2.1466 107° East 379 436 20,400 -1,440 Climbing FlightAware ADS-B
12:31AM 51.6568 -2.0997 107° East 348 400 18,400 -1,380 Descending FlightAware UK
12:31AM 51.6503 -2.0676 107° East 372 428 19,700 -1,440 Climbing FlightAware ADS-B
12:31AM 51.6408 -2.0213 107° East 344 396 17,700 -1,620 Descending FlightAware UK
12:32AM 51.6342 -1.9890 107° East 365 420 18,900 -1,440 Climbing FlightAware ADS-B
12:32AM 51.6250 -1.9442 107° East 336 387 17,000 -1,440 Descending FlightAware UK
12:32AM 51.6181 -1.9109 107° East 359 413 18,200 -1,440 Climbing FlightAware ADS-B
12:32AM 51.6092 -1.8681 107° East 330 380 16,300 -1,440 Descending FlightAware UK
12:33AM 51.6026 -1.8355 107° East 354 407 17,500 -1,440 Climbing FlightAware ADS-B
12:33AM 51.5938 -1.7938 107° East 326 375 15,600 -1,380 Descending FlightAware UK
12:33AM 51.5871 -1.7611 107° East 349 402 16,800 -1,620 Climbing FlightAware ADS-B
12:33AM 51.5785 -1.7199 107° East 324 373 14,800 -1,440 Descending FlightAware UK
12:34AM 51.5716 -1.6869 107° East 344 396 16,100 -1,440 Climbing FlightAware ADS-B
12:34AM 51.5634 -1.6476 107° East 320 368 14,100 -1,560 Descending FlightAware UK
12:34AM 51.5561 -1.6126 107° East 340 391 15,300 -1,200 Climbing FlightAware ADS-B
12:34AM 51.5484 -1.5759 107° East 314 361 13,500 -1,200 Descending FlightAware UK
12:35AM 51.5411 -1.5409 107° East 335 386 14,700 -1,440 Climbing FlightAware ADS-B
12:35AM 51.5335 -1.5049 107° East 308 354 12,800 -1,380 Descending FlightAware UK
12:35AM 51.5262 -1.4699 107° East 335 386 14,000 -1,380 Climbing FlightAware ADS-B
12:35AM 51.5159 -1.4209 107° East 316 364 12,000 -1,380 Descending FlightAware UK
12:36AM 51.5108 -1.3971 107° East 326 375 13,300 -1,200 Climbing FlightAware ADS-B
12:36AM 51.5013 -1.3523 107° East 308 354 11,400 -1,260 Descending FlightAware UK
12:36AM 51.4992 -1.3425 107° East 321 369 12,800 -1,260 Climbing FlightAware ADS-B
12:36AM 51.4901 -1.2990 107° East 304 350 10,900 -1,200 Descending FlightAware UK
12:37AM 51.4849 -1.2752 107° East 315 362 12,200 -1,200 Climbing FlightAware ADS-B
12:37AM 51.4758 -1.2328 107° East 298 343 10,300 -780 Descending FlightAware UK
12:37AM 51.4709 -1.2093 107° East 307 353 11,800 -600 Climbing FlightAware ADS-B
12:37AM 51.4623 -1.1689 107° East 280 322 10,000 -600 Descending FlightAware UK
12:38AM 51.4574 -1.1463 107° East 291 335 11,500 -420 Climbing FlightAware ADS-B
12:38AM 51.4494 -1.1086 107° East 262 302 9,800 -600 Descending FlightAware UK
12:38AM 51.4445 -1.0863 107° East 273 314 11,200 -600 Climbing FlightAware ADS-B
12:38AM 51.4370 -1.0512 107° East 246 283 9,500 -420 Descending FlightAware UK
12:39AM 51.4321 -1.0287 107° East 267 307 11,000  Climbing FlightAware ADS-B
12:39AM 51.4251 -0.9956 107° East 246 283 9,500  Descending FlightAware UK
12:39AM 51.4196 -0.9704 107° East 267 307 11,000  Climbing FlightAware ADS-B
12:39AM 51.4131 -0.9400 107° East 246 283 9,500  Descending FlightAware UK
12:40AM 51.4068 -0.9116 107° East 267 307 11,000  Climbing FlightAware ADS-B
12:40AM 51.3987 -0.8735 107° East 248 285 9,500  Descending FlightAware UK
12:40AM 51.3947 -0.8560 107° East 269 310 11,000  Climbing FlightAware ADS-B
12:40AM 51.3863 -0.8169 107° East 246 283 9,500 -240 Descending FlightAware UK
12:41AM 51.3818 -0.7967 107° East 267 307 10,900 -600 Climbing FlightAware ADS-B
12:41AM 51.3741 -0.7608 107° East 244 281 9,200 -420 Descending FlightAware UK
12:41AM 51.3695 -0.7401 107° East 267 307 10,700 -600 Climbing FlightAware ADS-B
12:41AM 51.3618 -0.7047 107° East 244 281 8,900 -600 Descending FlightAware UK
12:42AM 51.3572 -0.6843 107° East 266 306 10,400 -420 Climbing FlightAware ADS-B
12:42AM 51.3496 -0.6491 107° East 242 278 8,700 -420 Descending FlightAware UK
12:42AM 51.3448 -0.6276 107° East 267 307 10,200 -420 Climbing FlightAware ADS-B
12:42AM 51.3374 -0.5935 107° East 240 276 8,500 -420 Descending FlightAware UK
12:43AM 51.3326 -0.5717 107° East 268 308 10,000  Climbing FlightAware ADS-B
12:43AM 51.3253 -0.5381 107° East 242 278 8,500  Descending FlightAware UK
12:43AM 51.3199 -0.5146 107° East 269 310 10,000  Climbing FlightAware ADS-B
12:43AM 51.3128 -0.4820 107° East 242 278 8,500  Descending FlightAware UK
12:44AM 51.3075 -0.4586 107° East 267 307 10,000 3,060 Climbing FlightAware ADS-B
12:44AM 51.3011 -0.4298 110° East 267 307 10,000  Level FlightAware ADS-B
12:44AM 51.2961 -0.4119 114° Southeast 266 306 10,000  Level FlightAware ADS-B
12:44AM 51.2928 -0.4023 119° Southeast 266 306 10,000 -4,140 Level FlightAware ADS-B
12:44AM 51.2826 -0.3738 119° Southeast 242 278 8,500  Descending FlightAware UK
12:45AM 51.2740 -0.3514 119° Southeast 266 306 10,000  Climbing FlightAware ADS-B
12:45AM 51.2636 -0.3236 119° Southeast 240 276 8,500  Descending FlightAware UK
12:45AM 51.2598 -0.3129 119° Southeast 266 306 10,000 8,160 Climbing FlightAware ADS-B
12:45AM 51.2569 -0.3060 124° Southeast 265 305 10,000  Level FlightAware ADS-B
12:45AM 51.2542 -0.3009 130° Southeast 264 304 10,000  Level FlightAware ADS-B
12:45AM 51.2512 -0.2964 137° Southeast 263 303 10,000  Level FlightAware ADS-B
12:45AM 51.2472 -0.2917 144° Southeast 261 300 10,000  Level FlightAware ADS-B
12:45AM 51.2438 -0.2888 151° Southeast 260 299 10,000  Level FlightAware ADS-B
12:45AM 51.2401 -0.2863 158° South 256 295 10,000  Level FlightAware ADS-B
12:46AM 51.2335 -0.2837 166° South 252 290 10,000  Level FlightAware ADS-B
12:46AM 51.2301 -0.2832 174° South 248 285 10,000  Level FlightAware ADS-B
12:46AM 51.2267 -0.2831 179° South 246 283 10,000  Level FlightAware ADS-B
12:46AM 51.2222 -0.2839 186° South 243 280 10,000  Level FlightAware ADS-B
12:46AM 51.2156 -0.2865 194° South 240 276 10,000  Level FlightAware ADS-B
12:46AM 51.2112 -0.2894 203° Southwest 237 273 10,000  Level FlightAware ADS-B
12:46AM 51.2064 -0.2940 211° Southwest 235 270 10,000  Level FlightAware ADS-B
12:46AM 51.2015 -0.3004 220° Southwest 231 266 10,000  Level FlightAware ADS-B
12:46AM 51.1992 -0.3044 227° Southwest 231 266 10,000  Level FlightAware ADS-B
12:46AM 51.1972 -0.3087 233° Southwest 229 264 10,000  Level FlightAware ADS-B
12:46AM 51.1952 -0.3140 239° Southwest 228 262 10,000  Level FlightAware ADS-B
12:46AM 51.1937 -0.3187 243° Southwest 226 260 10,000  Level FlightAware ADS-B
12:46AM 51.1923 -0.3242 248° West 225 259 10,000  Level FlightAware ADS-B
12:46AM 51.1909 -0.3345 258° West 222 255 10,000  Level FlightAware ADS-B
12:46AM 51.1907 -0.3394 266° West 221 254 10,000  Level FlightAware ADS-B
12:47AM 51.1907 -0.3452 270° West 219 252 10,000  Level FlightAware ADS-B
12:47AM 51.1911 -0.3510 276° West 218 251 10,000  Level FlightAware ADS-B
12:47AM 51.1925 -0.3603 283° West 218 251 10,000  Level FlightAware ADS-B
12:47AM 51.1937 -0.3654 291° West 217 250 10,000  Level FlightAware ADS-B
12:47AM 51.1951 -0.3700 296° West 217 250 10,000  Level FlightAware ADS-B
12:47AM 51.1968 -0.3747 300° West 216 249 10,000  Level FlightAware ADS-B
12:47AM 51.1986 -0.3785 307° West 217 250 10,000  Level FlightAware ADS-B
12:47AM 51.2026 -0.3855 312° West 217 250 10,000  Level FlightAware ADS-B
12:47AM 51.2051 -0.3888 321° Northwest 217 250 10,000  Level FlightAware ADS-B
12:47AM 51.2078 -0.3918 325° Northwest 219 252 10,000  Level FlightAware ADS-B
12:47AM 51.2139 -0.3968 333° Northwest 221 254 10,000  Level FlightAware ADS-B
12:47AM 51.2188 -0.3993 343° North 224 258 10,000  Level FlightAware ADS-B
12:47AM 51.2238 -0.4007 350° North 226 260 10,000  Level FlightAware ADS-B
12:47AM 51.2270 -0.4011 356° North 228 262 10,000  Level FlightAware ADS-B
12:48AM 51.2313 -0.4010 North 229 264 10,000 -600 Level FlightAware ADS-B
12:48AM 51.2398 -0.4007 North 229 264 9,900 -480 Descending FlightAware ADS-B
12:48AM 51.2439 -0.4012 356° North 226 260 9,900  Level FlightAware ADS-B
12:48AM 51.2499 -0.4027 351° North 223 257 9,900 -780 Level FlightAware ADS-B
12:48AM 51.2534 -0.4041 346° North 222 255 9,800 -900 Descending FlightAware ADS-B
12:48AM 51.2565 -0.4055 344° North 221 254 9,800  Level FlightAware ADS-B
12:48AM 51.2616 -0.4083 341° North 219 252 9,800 -600 Level FlightAware ADS-B
12:48AM 51.2673 -0.4122 337° Northwest 218 251 9,700 -600 Descending FlightAware ADS-B
12:48AM 51.2720 -0.4157 335° Northwest 217 250 9,700 -420 Level FlightAware ADS-B
12:48AM 51.2801 -0.4225 332° Northwest 216 249 9,600 -540 Descending FlightAware ADS-B
12:49AM 51.2917 -0.4331 330° Northwest 215 247 9,500 -480 Descending FlightAware ADS-B
12:49AM 51.3039 -0.4449 329° Northwest 215 247 9,400 -480 Descending FlightAware ADS-B
12:49AM 51.3130 -0.4539 328° Northwest 214 246 9,300 -840 Descending FlightAware ADS-B
12:49AM 51.3157 -0.4562 332° Northwest 215 247 9,200 -780 Descending FlightAware ADS-B
12:49AM 51.3204 -0.4593 337° Northwest 218 251 9,200  Level FlightAware ADS-B
12:49AM 51.3233 -0.4607 343° North 219 252 9,200 -780 Level FlightAware ADS-B
12:49AM 51.3276 -0.4620 349° North 223 257 9,100 -600 Descending FlightAware ADS-B
12:49AM 51.3340 -0.4626 357° North 227 261 9,100  Level FlightAware ADS-B
12:49AM 51.3377 -0.4621 North 230 265 9,100 -780 Level FlightAware ADS-B
12:49AM 51.3417 -0.4609 11° North 232 267 9,000 -900 Descending FlightAware ADS-B
12:50AM 51.3452 -0.4590 18° North 234 269 9,000  Level FlightAware ADS-B
12:50AM 51.3483 -0.4570 23° Northeast 237 273 9,000  Level FlightAware ADS-B
12:50AM 51.3523 -0.4534 29° Northeast 239 275 9,000  Level FlightAware ADS-B
12:50AM 51.3555 -0.4498 36° Northeast 241 277 9,000  Level FlightAware ADS-B
12:50AM 51.3588 -0.4449 43° Northeast 244 281 9,000  Level FlightAware ADS-B
12:50AM 51.3610 -0.4407 50° Northeast 247 284 9,000  Level FlightAware ADS-B
12:50AM 51.3640 -0.4340 55° Northeast 249 287 9,000  Level FlightAware ADS-B
12:50AM 51.3656 -0.4291 62° Northeast 252 290 9,000  Level FlightAware ADS-B
12:50AM 51.3674 -0.4217 69° East 254 292 9,000  Level FlightAware ADS-B
12:50AM 51.3687 -0.4130 76° East 256 295 9,000  Level FlightAware ADS-B
12:50AM 51.3691 -0.4066 84° East 258 297 9,000  Level FlightAware ADS-B
12:50AM 51.3690 -0.3997 91° East 258 297 9,000  Level FlightAware ADS-B
12:50AM 51.3682 -0.3912 99° East 259 298 9,000  Level FlightAware ADS-B
12:50AM 51.3667 -0.3834 107° East 260 299 9,000  Level FlightAware ADS-B
12:50AM 51.3652 -0.3777 113° Southeast 261 300 9,000  Level FlightAware ADS-B
12:50AM 51.3634 -0.3726 120° Southeast 261 300 9,000  Level FlightAware ADS-B
12:51AM 51.3605 -0.3664 126° Southeast 261 300 9,000  Level FlightAware ADS-B
12:51AM 51.3577 -0.3615 133° Southeast 261 300 9,000  Level FlightAware ADS-B
12:51AM 51.3542 -0.3568 140° Southeast 260 299 9,000  Level FlightAware ADS-B
12:51AM 51.3511 -0.3532 144° Southeast 259 298 9,000  Level FlightAware ADS-B
12:51AM 51.3463 -0.3485 148° Southeast 258 297 9,000  Level FlightAware ADS-B
12:51AM 51.3303 -0.3330 149° Southeast 257 296 9,000 -2,700 Level FlightAware ADS-B
12:51AM 51.3122 -0.3154 149° Southeast 238 274 7,500  Descending FlightAware UK
12:51AM 51.3112 -0.3145 149° Southeast 258 297 9,000 5,580 Climbing FlightAware ADS-B
12:52AM 51.2959 -0.2995 149° Southeast 257 296 9,000  Level FlightAware ADS-B
12:52AM 51.2921 -0.2962 152° Southeast 257 296 9,000  Level FlightAware ADS-B
12:52AM 51.2872 -0.2930 158° South 255 293 9,000  Level FlightAware ADS-B
12:52AM 51.2832 -0.2911 163° South 253 291 9,000  Level FlightAware ADS-B
12:52AM 51.2775 -0.2900 173° South 250 288 9,000  Level FlightAware ADS-B
12:52AM 51.2724 -0.2901 181° South 246 283 9,000  Level FlightAware ADS-B
12:52AM 51.2651 -0.2923 191° South 244 281 9,000  Level FlightAware ADS-B
12:52AM 51.2598 -0.2956 202° Southwest 239 275 9,000  Level FlightAware ADS-B
12:52AM 51.2568 -0.2983 209° Southwest 237 273 9,000  Level FlightAware ADS-B
12:52AM 51.2537 -0.3016 214° Southwest 234 269 9,000  Level FlightAware ADS-B
12:52AM 51.2506 -0.3059 221° Southwest 230 265 9,000  Level FlightAware ADS-B
12:52AM 51.2479 -0.3102 225° Southwest 228 262 9,000  Level FlightAware ADS-B
12:52AM 51.2459 -0.3144 233° Southwest 226 260 9,000  Level FlightAware ADS-B
12:53AM 51.2430 -0.3219 238° Southwest 223 257 9,000  Level FlightAware ADS-B
12:53AM 51.2417 -0.3264 245° Southwest 221 254 9,000  Level FlightAware ADS-B
12:53AM 51.2402 -0.3336 252° West 220 253 9,000  Level FlightAware ADS-B
12:53AM 51.2395 -0.3386 257° West 218 251 9,000  Level FlightAware ADS-B
12:53AM 51.2391 -0.3436 263° West 217 250 9,000  Level FlightAware ADS-B
12:53AM 51.2390 -0.3514 269° West 215 247 9,000  Level FlightAware ADS-B
12:53AM 51.2393 -0.3571 275° West 213 245 9,000  Level FlightAware ADS-B
12:53AM 51.2400 -0.3627 281° West 213 245 9,000  Level FlightAware ADS-B
12:53AM 51.2411 -0.3687 286° West 212 244 9,000  Level FlightAware ADS-B
12:53AM 51.2429 -0.3751 294° West 212 244 9,000  Level FlightAware ADS-B
12:53AM 51.2451 -0.3813 300° West 212 244 9,000  Level FlightAware ADS-B
12:53AM 51.2478 -0.3871 306° West 212 244 9,000  Level FlightAware ADS-B
12:53AM 51.2495 -0.3899 315° West 213 245 9,000  Level FlightAware ADS-B
12:53AM 51.2536 -0.3958 318° Northwest 214 246 9,000  Level FlightAware ADS-B
12:53AM 51.2564 -0.3989 325° Northwest 216 249 9,000  Level FlightAware ADS-B
12:54AM 51.2662 -0.4087 328° Northwest 216 249 9,000  Level FlightAware ADS-B
12:54AM 51.2796 -0.4218 329° Northwest 215 247 9,000  Level FlightAware ADS-B
12:54AM 51.2925 -0.4345 328° Northwest 216 249 9,000 -2,940 Level FlightAware ADS-B
12:54AM 51.3061 -0.4476 328° Northwest 236 272 7,500  Descending FlightAware UK
12:54AM 51.3061 -0.4478 328° Northwest 216 249 9,000 9,000 Climbing FlightAware ADS-B
12:55AM 51.3142 -0.4556 329° Northwest 216 249 9,000  Level FlightAware ADS-B
12:55AM 51.3194 -0.4594 335° Northwest 218 251 9,000  Level FlightAware ADS-B
12:55AM 51.3225 -0.4610 343° North 220 253 9,000  Level FlightAware ADS-B
12:55AM 51.3280 -0.4629 348° North 222 255 9,000  Level FlightAware ADS-B
12:55AM 51.3317 -0.4639 350° North 223 257 9,000  Level FlightAware ADS-B
12:55AM 51.3473 -0.4671 353° North 224 258 9,000 -600 Level FlightAware ADS-B
12:55AM 51.3629 -0.4702 353° North 222 255 8,700 -960 Descending FlightAware ADS-B
12:56AM 51.3720 -0.4720 353° North 222 255 8,600 -1,020 Descending FlightAware ADS-B
12:56AM 51.3875 -0.4755 352° North 223 257 8,300 -1,320 Descending FlightAware ADS-B
12:56AM 51.3908 -0.4761 353° North 224 258 8,200 -780 Descending FlightAware ADS-B
12:56AM 51.3958 -0.4768 355° North 225 259 8,200 -900 Level FlightAware ADS-B
12:56AM 51.3996 -0.4765 North 229 264 8,100 -900 Descending FlightAware ADS-B
12:56AM 51.4037 -0.4752 11° North 232 267 8,100 -720 Level FlightAware ADS-B
12:56AM 51.4076 -0.4729 20° North 236 272 8,000 -600 Descending FlightAware ADS-B
12:56AM 51.4129 -0.4681 29° Northeast 240 276 8,000  Level FlightAware ADS-B
12:56AM 51.4163 -0.4635 40° Northeast 243 280 8,000  Level FlightAware ADS-B
12:56AM 51.4186 -0.4595 47° Northeast 246 283 8,000  Level FlightAware ADS-B
12:56AM 51.4210 -0.4540 55° Northeast 248 285 8,000  Level FlightAware ADS-B
12:56AM 51.4230 -0.4481 62° Northeast 250 288 8,000  Level FlightAware ADS-B
12:57AM 51.4245 -0.4419 69° East 251 289 8,000  Level FlightAware ADS-B
12:57AM 51.4254 -0.4356 77° East 253 291 8,000  Level FlightAware ADS-B
12:57AM 51.4259 -0.4292 83° East 254 292 8,000  Level FlightAware ADS-B
12:57AM 51.4259 -0.4217 90° East 255 293 8,000  Level FlightAware ADS-B
12:57AM 51.4251 -0.4141 100° East 255 293 8,000  Level FlightAware ADS-B
12:57AM 51.4241 -0.4082 105° East 255 293 8,000  Level FlightAware ADS-B
12:57AM 51.4227 -0.4028 112° Southeast 254 292 8,000  Level FlightAware ADS-B
12:57AM 51.4210 -0.3980 120° Southeast 254 292 8,000  Level FlightAware ADS-B
12:57AM 51.4184 -0.3919 124° Southeast 254 292 8,000  Level FlightAware ADS-B
12:57AM 51.4150 -0.3856 131° Southeast 253 291 8,000  Level FlightAware ADS-B
12:57AM 51.4114 -0.3800 136° Southeast 252 290 8,000  Level FlightAware ADS-B
12:57AM 51.4062 -0.3726 138° Southeast 251 289 8,000  Level FlightAware ADS-B
12:57AM 51.3956 -0.3579 139° Southeast 251 289 8,000 -720 Level FlightAware ADS-B
12:58AM 51.3827 -0.3407 140° Southeast 250 288 7,700 -1,200 Descending FlightAware ADS-B
12:58AM 51.3770 -0.3320 136° Southeast 249 287 7,600 -1,140 Descending FlightAware ADS-B
12:58AM 51.3739 -0.3253 127° Southeast 250 288 7,500 -780 Descending FlightAware ADS-B
12:58AM 51.3719 -0.3195 119° Southeast 251 289 7,500 -780 Level FlightAware ADS-B
12:58AM 51.3703 -0.3124 110° East 251 289 7,400 -1,500 Descending FlightAware ADS-B
12:58AM 51.3693 -0.3055 103° East 250 288 7,300 -780 Descending FlightAware ADS-B
12:58AM 51.3688 -0.2989 97° East 249 287 7,300 -900 Level FlightAware ADS-B
12:58AM 51.3687 -0.2930 92° East 248 285 7,200 -900 Descending FlightAware ADS-B
12:58AM 51.3689 -0.2853 88° East 246 283 7,200 -300 Level FlightAware ADS-B
12:59AM 51.3703 -0.2571 85° East 234 269 7,100 -600 Descending FlightAware ADS-B
12:59AM 51.3718 -0.2314 85° East 222 255 6,900 -780 Descending FlightAware ADS-B
12:59AM 51.3734 -0.2068 84° East 217 250 6,700 -840 Descending FlightAware ADS-B
12:59AM 51.3749 -0.1855 84° East 215 247 6,500 -840 Descending FlightAware ADS-B
01:00AM 51.3767 -0.1616 83° East 214 246 6,300 -780 Descending FlightAware ADS-B
01:00AM 51.3785 -0.1379 83° East 213 245 6,100 -600 Descending FlightAware ADS-B
01:00AM 51.3804 -0.1136 83° East 213 245 6,000 -420 Descending FlightAware ADS-B
01:00AM 51.3823 -0.0896 83° East 214 246 5,900 -480 Descending FlightAware ADS-B
01:00AM 51.3836 -0.0725 83° East 214 246 5,800 -480 Descending FlightAware ADS-B
01:01AM 51.3855 -0.0483 83° East 213 245 5,700 -420 Descending FlightAware ADS-B
01:01AM 51.3874 -0.0243 83° East 213 245 5,600 -480 Descending FlightAware ADS-B
01:01AM 51.3891 -0.0041 82° East 212 244 5,500 -360 Descending FlightAware ADS-B
01:01AM 51.3901 0.0033 78° East 211 243 5,500  Level FlightAware ADS-B
01:01AM 51.3912 0.0081 70° East 210 242 5,500 -900 Level FlightAware ADS-B
01:01AM 51.3929 0.0134 63° Northeast 211 243 5,400 -1,020 Descending FlightAware ADS-B
01:01AM 51.3947 0.0173 54° Northeast 210 242 5,400  Level FlightAware ADS-B
01:02AM 51.3996 0.0243 42° Northeast 207 238 5,400  Level FlightAware ADS-B
01:02AM 51.4028 0.0272 29° Northeast 206 237 5,400 -600 Level FlightAware ADS-B
01:02AM 51.4075 0.0298 19° North 204 235 5,300 -720 Descending FlightAware ADS-B
01:02AM 51.4109 0.0308 10° North 202 232 5,300  Level FlightAware ADS-B
01:02AM 51.4144 0.0314 North 200 230 5,300 -360 Level FlightAware ADS-B
01:02AM 51.4286 0.0323 North 199 229 5,200 -300 Descending FlightAware ADS-B
01:02AM 51.4360 0.0325 North 199 229 5,200  Level FlightAware ADS-B
01:02AM 51.4408 0.0318 354° North 197 227 5,200 -600 Level FlightAware ADS-B
01:02AM 51.4447 0.0298 343° North 194 223 5,100 -720 Descending FlightAware ADS-B
01:02AM 51.4486 0.0266 332° Northwest 192 221 5,100  Level FlightAware ADS-B
01:03AM 51.4511 0.0232 320° Northwest 191 220 5,100  Level FlightAware ADS-B
01:03AM 51.4547 0.0169 312° West 189 217 5,100  Level FlightAware ADS-B
01:03AM 51.4564 0.0129 305° West 188 216 5,100 -900 Level FlightAware ADS-B
01:03AM 51.4581 0.0087 303° West 188 216 5,000 -600 Descending FlightAware ADS-B
01:03AM 51.4614 -0.0002 301° West 187 215 5,000 -540 Level FlightAware ADS-B
01:03AM 51.4682 -0.0191 300° West 186 214 4,800 -720 Descending FlightAware ADS-B
01:03AM 51.4729 -0.0321 300° West 187 215 4,700 -420 Descending FlightAware ADS-B
01:03AM 51.4741 -0.0364 294° West 187 215 4,700 -900 Level FlightAware ADS-B
01:03AM 51.4751 -0.0409 290° West 186 214 4,600 -1,020 Descending FlightAware ADS-B
01:03AM 51.4759 -0.0451 287° West 186 214 4,600 -780 Level FlightAware ADS-B
01:04AM 51.4766 -0.0511 281° West 185 213 4,500 -600 Descending FlightAware ADS-B
01:04AM 51.4772 -0.0581 278° West 184 212 4,500  Level FlightAware ADS-B
01:04AM 51.4781 -0.0801 274° West 184 212 4,500 -540 Level FlightAware ADS-B
01:04AM 51.4782 -0.0913 271° West 181 208 4,300 -1,320 Descending FlightAware ADS-B
01:04AM 51.4781 -0.1113 270° West 181 208 4,000 -1,380 Descending FlightAware ADS-B
01:05AM 51.4781 -0.1326 270° West 183 211 3,600 -1,320 Descending FlightAware ADS-B
01:05AM 51.4781 -0.1488 270° West 176 203 3,400 -1,080 Descending FlightAware ADS-B
01:05AM 51.4783 -0.1683 271° West 162 186 3,100 -1,020 Descending FlightAware ADS-B
01:05AM 51.4782 -0.1859 269° West 153 176 2,900 -900 Descending FlightAware ADS-B
01:06AM 51.4782 -0.2001 270° West 151 174 2,700 -900 Descending FlightAware ADS-B
01:06AM 51.4782 -0.2161 270° West 151 174 2,500 -3,780 Descending FlightAware ADS-B
01:06AM 51.4781 -0.2366 270° West 166 191 700 -780 Descending FlightAware UK
01:06AM 51.4781 -0.2435 270° West 149 171 2,200 3,540 Climbing FlightAware ADS-B
01:06AM 51.4781 -0.2603 270° West 149 171 2,000 -780 Descending FlightAware ADS-B
01:07AM 51.4781 -0.2769 270° West 148 170 1,800 -780 Descending FlightAware ADS-B
01:08AM 51.4780 -0.3360 270° West 134 154 1,100 -780 Descending FlightAware
01:08AM 51.4780 -0.3590 270° West 133 153 800 -780 Descending FlightAware
01:09AM 51.4780 -0.3890 270° West 132 152 400 -780 Descending FlightAware
01:09AM 51.4780 -0.3970 270° West 130 150 300 -600 Descending FlightAware
01:09AM 51.4780 -0.4270 270° West 137 158 -540 Descending FlightAware
01:10AM 51.4780 -0.4500 270° West 137 158  Level FlightAware
01:12AM 51.4667 -0.4500 129° Southeast  Level FlightAware Approximate